Time;durP1;ratioP1;P1;durP2;ratioP2;P2;SDS_P1;SDS_P2;PMS_P1;PMS_P2;Temp;Humidity;BMP_temperature;BMP_pressure;BME280_temperature;BME280_humidity;BME280_pressure;Samples;Min_cycle;Max_cycle;Signal;HPM_P1;HPM_P2
2022/07/29 00:01:45;;;;;;;5.82;1.48;;;20.60;74.80;;;;;;4973452;28;20410;-55
2022/07/29 00:04:11;;;;;;;2.80;1.10;;;20.50;75.00;;;;;;4958450;29;20023;-57
2022/07/29 00:06:36;;;;;;;4.20;1.20;;;20.50;74.80;;;;;;4956919;29;20087;-58
2022/07/29 00:09:02;;;;;;;5.20;1.30;;;20.50;74.40;;;;;;4956865;29;20035;-57
2022/07/29 00:11:28;;;;;;;2.47;1.20;;;20.50;74.30;;;;;;4957163;29;20106;-56
2022/07/29 00:13:53;;;;;;;7.05;1.20;;;20.50;74.30;;;;;;4958381;29;20032;-56
2022/07/29 00:16:19;;;;;;;5.25;1.20;;;20.50;74.30;;;;;;4956718;29;20027;-56
2022/07/29 00:18:45;;;;;;;4.45;1.30;;;20.50;74.40;;;;;;4956888;29;20138;-56
2022/07/29 00:21:10;;;;;;;10.27;1.38;;;20.40;74.40;;;;;;4957909;28;20023;-54
2022/07/29 00:23:36;;;;;;;3.58;1.48;;;20.50;74.40;;;;;;4956513;29;20032;-53
2022/07/29 00:26:02;;;;;;;6.28;1.33;;;20.40;74.50;;;;;;4958055;29;20038;-54
2022/07/29 00:28:27;;;;;;;3.90;0.80;;;20.40;74.70;;;;;;4957052;28;20032;-50
2022/07/29 00:30:53;;;;;;;2.30;1.20;;;20.40;75.40;;;;;;4957557;29;20027;-57
2022/07/29 00:33:19;;;;;;;2.17;1.02;;;20.40;75.50;;;;;;4979938;28;20034;-57
2022/07/29 00:35:44;;;;;;;2.55;1.10;;;20.40;76.10;;;;;;4973805;28;20023;-57
2022/07/29 00:38:15;;;;;;;3.83;1.17;;;20.40;77.10;;;;;;4958735;29;20031;-57
2022/07/29 00:40:42;;;;;;;5.20;1.60;;;20.30;77.10;;;;;;4958407;29;20029;-52
2022/07/29 00:43:09;;;;;;;6.20;2.13;;;20.30;77.80;;;;;;4960855;29;20023;-57
2022/07/29 00:45:35;;;;;;;6.88;1.33;;;20.20;80.30;;;;;;4957385;28;20031;-55
2022/07/29 00:48:01;;;;;;;5.43;1.50;;;20.10;80.90;;;;;;4956007;29;20569;-53
2022/07/29 00:50:27;;;;;;;3.20;1.38;;;20.00;80.40;;;;;;4972226;28;20043;-56
2022/07/29 00:52:53;;;;;;;2.55;1.10;;;20.00;80.10;;;;;;4957065;29;20034;-56
2022/07/29 00:55:21;;;;;;;3.78;1.17;;;20.00;80.80;;;;;;4956366;29;20030;-57
2022/07/29 00:57:47;;;;;;;6.53;1.63;;;20.00;80.00;;;;;;4957231;29;20023;-56
2022/07/29 01:00:17;;;;;;;5.75;1.10;;;20.10;79.80;;;;;;4956903;29;20110;-57
2022/07/29 01:02:43;;;;;;;5.88;0.98;;;20.00;79.70;;;;;;4956222;29;20497;-57
2022/07/29 01:05:11;;;;;;;3.60;1.50;;;20.10;79.40;;;;;;4956113;29;20096;-56
2022/07/29 01:07:38;;;;;;;4.63;1.38;;;20.10;79.10;;;;;;4957526;29;20027;-57
2022/07/29 01:10:06;;;;;;;3.45;0.80;;;20.10;78.80;;;;;;4971894;28;20033;-55
2022/07/29 01:12:33;;;;;;;11.00;1.80;;;20.20;79.00;;;;;;4955710;29;20030;-57
2022/07/29 01:15:00;;;;;;;3.40;1.55;;;20.20;79.50;;;;;;4956111;29;20095;-54
2022/07/29 01:17:28;;;;;;;2.70;1.48;;;20.30;78.30;;;;;;4955649;29;20027;-55
2022/07/29 01:20:15;;;;;;;11.10;1.48;;;20.20;78.30;;;;;;4956730;29;20106;-57
2022/07/29 01:22:58;;;;;;;3.40;1.17;;;20.20;78.30;;;;;;4956773;29;20051;-57
2022/07/29 01:25:32;;;;;;;3.53;1.05;;;20.30;78.80;;;;;;4956824;29;20027;-56
2022/07/29 01:28:07;;;;;;;3.50;1.15;;;20.30;79.00;;;;;;4956705;29;20055;-57
2022/07/29 01:30:35;;;;;;;10.20;1.33;;;20.30;79.30;;;;;;4955442;29;20023;-54
2022/07/29 01:33:07;;;;;;;8.35;1.05;;;20.30;79.20;;;;;;4955549;28;20034;-57
2022/07/29 01:35:39;;;;;;;4.72;1.42;;;20.30;79.30;;;;;;4956237;29;20027;-55
2022/07/29 01:38:10;;;;;;;;;;;20.40;81.00;;;;;;4956896;29;20437;-55
2022/07/29 01:40:46;;;;;;;7.33;1.67;;;20.40;82.40;;;;;;4955276;28;20373;-53
2022/07/29 01:43:36;;;;;;;3.72;1.10;;;20.20;82.20;;;;;;4955241;29;20259;-57
2022/07/29 01:46:05;;;;;;;8.60;1.58;;;20.20;86.40;;;;;;4956726;29;20030;-56
2022/07/29 01:48:42;;;;;;;7.57;1.38;;;20.20;86.10;;;;;;4956160;28;20071;-52
2022/07/29 01:51:20;;;;;;;3.30;1.30;;;20.20;86.90;;;;;;4956380;29;20023;-56
2022/07/29 01:53:51;;;;;;;5.25;1.40;;;20.20;89.30;;;;;;4955137;29;20023;-56
2022/07/29 01:56:18;;;;;;;;;;;20.20;92.40;;;;;;4956292;29;20034;-55
2022/07/29 01:58:45;;;;;;;2.65;1.30;;;20.20;89.60;;;;;;4955174;28;19993;-56
2022/07/29 02:01:13;;;;;;;4.32;1.83;;;20.20;94.10;;;;;;4955994;29;20485;-54
2022/07/29 02:03:40;;;;;;;8.55;1.70;;;19.90;98.50;;;;;;4954757;29;20024;-51
2022/07/29 02:06:07;;;;;;;3.38;1.83;;;19.60;99.90;;;;;;4954680;29;20039;-55
2022/07/29 02:08:34;;;;;;;4.15;1.23;;;19.30;99.90;;;;;;4954630;29;20031;-53
2022/07/29 02:11:04;;;;;;;4.30;1.58;;;19.10;99.90;;;;;;4954684;29;20367;-56
2022/07/29 02:13:31;;;;;;;3.00;1.42;;;19.00;99.90;;;;;;4954698;29;20028;-53
2022/07/29 02:15:59;;;;;;;4.35;1.55;;;19.00;99.90;;;;;;4954552;28;20047;-54
2022/07/29 02:18:30;;;;;;;4.82;1.77;;;18.90;99.90;;;;;;4955602;29;20023;-53
2022/07/29 02:20:58;;;;;;;5.70;1.60;;;18.80;99.90;;;;;;4955432;29;20106;-54
2022/07/29 02:23:24;;;;;;;3.67;1.58;;;18.70;99.90;;;;;;4955342;29;20024;-53
2022/07/29 02:25:56;;;;;;;5.47;1.45;;;18.70;99.90;;;;;;4955615;29;20102;-51
2022/07/29 02:28:27;;;;;;;;;;;18.60;99.90;;;;;;4954770;29;20086;-53
2022/07/29 02:30:55;;;;;;;3.20;1.30;;;18.70;99.90;;;;;;4955308;28;19997;-51
2022/07/29 02:33:23;;;;;;;3.05;1.60;;;18.80;99.90;;;;;;4955557;29;20038;-53
2022/07/29 02:35:51;;;;;;;5.05;1.50;;;18.60;99.90;;;;;;4954410;29;20027;-54
2022/07/29 02:41:08;;;;;;;8.38;2.03;;;18.00;99.90;;;;;;4955509;29;20434;-53
2022/07/29 02:43:36;;;;;;;13.07;2.17;;;17.80;99.90;;;;;;4970301;28;20034;-56
2022/07/29 02:46:07;;;;;;;2.17;1.40;;;17.80;99.90;;;;;;4954038;28;20054;-57
2022/07/29 02:48:40;;;;;;;6.75;1.77;;;17.90;99.90;;;;;;4954019;29;20034;-56
2022/07/29 02:51:17;;;;;;;4.63;1.20;;;18.00;99.90;;;;;;4954156;29;20035;-55
2022/07/29 02:53:47;;;;;;;5.97;1.65;;;18.10;99.90;;;;;;4955710;29;20061;-57
2022/07/29 02:56:16;;;;;;;4.82;1.48;;;18.20;99.90;;;;;;4955137;29;20027;-54
2022/07/29 02:58:46;;;;;;;4.80;1.30;;;18.30;99.90;;;;;;4953899;29;20027;-58
2022/07/29 03:01:16;;;;;;;2.53;1.40;;;18.40;99.90;;;;;;4954096;28;20028;-54
2022/07/29 03:03:44;;;;;;;4.65;1.70;;;18.30;99.90;;;;;;4954346;29;20122;-57
2022/07/29 03:06:13;;;;;;;5.82;1.65;;;18.30;99.90;;;;;;4953902;29;20051;-54
2022/07/29 03:08:40;;;;;;;2.67;1.88;;;18.30;99.90;;;;;;4955380;29;20125;-56
2022/07/29 03:11:07;;;;;;;3.67;1.58;;;18.30;99.90;;;;;;4955446;29;20027;-57
2022/07/29 03:13:33;;;;;;;4.35;1.30;;;18.40;99.90;;;;;;4955262;29;20023;-52
2022/07/29 03:15:59;;;;;;;5.03;1.92;;;18.40;99.90;;;;;;4953714;29;20086;-54
2022/07/29 03:18:25;;;;;;;7.53;1.55;;;18.40;99.90;;;;;;4954388;29;20058;-53
2022/07/29 03:20:51;;;;;;;3.45;1.55;;;18.50;99.90;;;;;;4953880;29;20027;-58
2022/07/29 03:23:23;;;;;;;5.30;1.65;;;18.50;99.90;;;;;;4954174;29;20486;-57
2022/07/29 03:25:50;;;;;;;6.15;2.35;;;18.60;99.90;;;;;;4955092;28;20023;-56
2022/07/29 03:28:15;;;;;;;3.05;1.60;;;18.50;99.90;;;;;;4954987;29;20059;-54
2022/07/29 03:30:41;;;;;;;3.17;1.40;;;18.50;99.90;;;;;;4954239;29;20063;-54
2022/07/29 03:33:07;;;;;;;5.53;1.92;;;18.50;99.90;;;;;;4953778;29;20482;-57
2022/07/29 03:35:32;;;;;;;3.60;1.92;;;18.50;99.90;;;;;;4953632;29;20027;-54
2022/07/29 03:37:58;;;;;;;6.25;1.65;;;18.50;99.90;;;;;;4954452;29;20058;-54
2022/07/29 03:40:37;;;;;;;4.78;2.17;;;18.60;99.90;;;;;;4954882;29;20403;-56
2022/07/29 03:43:05;;;;;;;9.40;2.00;;;18.40;99.90;;;;;;4955153;29;20024;-57
2022/07/29 03:45:33;;;;;;;5.07;1.83;;;18.30;99.90;;;;;;4954906;29;20028;-52
2022/07/29 03:48:09;;;;;;;8.20;2.33;;;18.20;99.90;;;;;;4953625;29;20035;-57
2022/07/29 03:50:36;;;;;;;8.25;1.60;;;18.10;99.90;;;;;;4955416;29;20182;-56
2022/07/29 03:53:02;;;;;;;4.68;1.80;;;18.20;99.90;;;;;;4954782;29;20034;-54
2022/07/29 03:55:33;;;;;;;4.95;2.13;;;18.20;99.90;;;;;;4954906;29;20070;-56
2022/07/29 03:58:01;;;;;;;2.13;1.60;;;18.30;99.90;;;;;;4972211;28;20027;-54
2022/07/29 04:00:28;;;;;;;15.10;2.28;;;18.20;99.90;;;;;;4956969;28;20054;-56
2022/07/29 04:02:54;;;;;;;4.57;1.83;;;18.20;99.90;;;;;;4958253;29;20452;-58
2022/07/29 04:05:19;;;;;;;9.23;2.20;;;18.30;99.90;;;;;;4958191;29;20110;-57
2022/07/29 04:07:46;;;;;;;12.27;2.38;;;18.20;99.90;;;;;;4956843;29;20031;-56
2022/07/29 04:10:12;;;;;;;9.52;2.15;;;18.20;99.90;;;;;;4958041;29;20028;-58
2022/07/29 04:12:38;;;;;;;4.68;2.40;;;18.20;99.90;;;;;;4956794;29;20030;-57
2022/07/29 04:15:05;;;;;;;9.52;2.60;;;18.00;99.90;;;;;;4957928;29;20036;-54
2022/07/29 04:17:30;;;;;;;5.72;2.55;;;17.90;99.90;;;;;;4956749;29;20120;-52
2022/07/29 04:19:56;;;;;;;6.22;1.95;;;17.90;99.90;;;;;;4973318;28;20058;-57
2022/07/29 04:22:21;;;;;;;5.32;2.20;;;17.90;99.90;;;;;;4957783;29;20042;-58
2022/07/29 04:24:47;;;;;;;5.50;2.40;;;17.60;99.90;;;;;;4957791;29;20020;-56
2022/07/29 04:27:12;;;;;;;7.75;2.47;;;17.50;99.90;;;;;;4956665;29;20089;-58
2022/07/29 04:29:38;;;;;;;7.75;2.22;;;17.50;99.90;;;;;;4956493;29;20034;-56
2022/07/29 04:32:04;;;;;;;7.50;2.25;;;17.40;99.90;;;;;;4956588;29;20114;-57
2022/07/29 04:34:30;;;;;;;6.00;1.65;;;17.40;99.90;;;;;;4956994;29;20031;-56
2022/07/29 04:36:55;;;;;;;5.15;2.38;;;17.30;99.90;;;;;;4957163;29;20422;-57
2022/07/29 04:39:21;;;;;;;3.42;2.30;;;17.20;99.90;;;;;;4957547;29;20466;-57
2022/07/29 04:42:04;;;;;;;4.50;2.38;;;17.10;99.90;;;;;;4956328;29;20122;-56
2022/07/29 04:44:30;;;;;;;6.55;2.65;;;16.60;99.90;;;;;;4957005;29;20094;-57
2022/07/29 04:46:57;;;;;;;6.82;2.55;;;16.60;99.90;;;;;;4957407;29;20027;-56
2022/07/29 04:49:23;;;;;;;5.03;2.20;;;16.90;99.90;;;;;;4956184;28;20035;-56
2022/07/29 04:51:48;;;;;;;4.95;2.75;;;17.00;99.90;;;;;;4957334;29;20047;-57
2022/07/29 04:54:14;;;;;;;8.77;2.70;;;17.10;99.90;;;;;;4956303;29;20066;-53
2022/07/29 04:56:41;;;;;;;5.65;2.17;;;17.20;99.90;;;;;;4957419;29;20030;-52
2022/07/29 04:59:07;;;;;;;5.93;2.13;;;17.00;99.90;;;;;;4955987;29;20023;-58
2022/07/29 05:01:32;;;;;;;6.50;2.75;;;16.90;99.90;;;;;;4955985;28;20050;-56
2022/07/29 05:03:58;;;;;;;8.98;2.25;;;17.00;99.90;;;;;;4956756;29;20019;-58
2022/07/29 05:06:24;;;;;;;9.10;2.33;;;17.10;99.90;;;;;;4957302;29;20034;-58
2022/07/29 05:08:49;;;;;;;5.35;2.10;;;17.20;99.90;;;;;;4956208;28;20038;-55
2022/07/29 05:11:15;;;;;;;5.20;2.13;;;17.20;99.90;;;;;;4956980;29;20126;-57
2022/07/29 05:13:40;;;;;;;5.68;3.00;;;17.20;99.90;;;;;;4956380;29;20034;-56
2022/07/29 05:16:08;;;;;;;7.35;3.03;;;17.20;99.90;;;;;;4956890;28;20106;-58
2022/07/29 05:18:34;;;;;;;5.47;2.45;;;17.30;99.90;;;;;;4957078;29;20030;-55
2022/07/29 05:20:59;;;;;;;4.65;2.20;;;17.40;99.90;;;;;;4956888;29;20020;-58
2022/07/29 05:23:25;;;;;;;5.63;1.77;;;17.50;99.90;;;;;;4955649;29;20020;-56
2022/07/29 05:25:50;;;;;;;6.45;2.30;;;17.50;99.90;;;;;;4956765;29;20033;-56
2022/07/29 05:28:16;;;;;;;4.60;2.10;;;17.50;99.90;;;;;;4955717;29;20477;-57
2022/07/29 05:30:42;;;;;;;5.80;2.60;;;17.60;99.90;;;;;;4955391;29;20482;-56
2022/07/29 05:33:07;;;;;;;6.55;2.13;;;17.60;99.90;;;;;;4971462;28;20122;-58
2022/07/29 05:35:34;;;;;;;10.70;2.55;;;17.70;99.90;;;;;;4956531;29;20092;-53
2022/07/29 05:38:00;;;;;;;9.10;2.20;;;17.70;99.90;;;;;;4955557;29;20023;-58
2022/07/29 05:40:26;;;;;;;4.70;2.30;;;17.70;99.90;;;;;;4955545;29;20386;-58
2022/07/29 05:42:51;;;;;;;4.45;2.28;;;17.70;99.90;;;;;;4956655;29;20035;-56
2022/07/29 05:45:17;;;;;;;8.68;2.03;;;17.70;99.90;;;;;;4971805;28;20116;-61
2022/07/29 05:47:42;;;;;;;7.05;3.03;;;17.90;99.90;;;;;;4954966;29;20023;-59
2022/07/29 05:50:08;;;;;;;5.47;2.58;;;18.00;99.90;;;;;;4956741;29;20046;-59
2022/07/29 05:52:34;;;;;;;12.80;2.90;;;18.10;99.90;;;;;;4955011;29;20023;-59
2022/07/29 05:55:02;;;;;;;7.25;2.50;;;18.20;99.90;;;;;;4954888;29;20039;-59
2022/07/29 05:57:28;;;;;;;8.55;2.22;;;18.40;99.90;;;;;;4954980;29;20054;-57
2022/07/29 05:59:53;;;;;;;5.25;1.85;;;19.10;99.90;;;;;;4956324;29;20047;-59
2022/07/29 06:02:19;;;;;;;3.40;2.20;;;19.80;99.90;;;;;;4956017;29;20019;-59
2022/07/29 06:04:45;;;;;;;11.00;2.75;;;20.60;99.90;;;;;;4955169;28;20023;-59
2022/07/29 06:07:11;;;;;;;2.97;1.65;;;21.40;99.90;;;;;;4955583;29;20023;-59
2022/07/29 06:09:36;;;;;;;12.73;2.42;;;21.90;99.90;;;;;;4954672;29;20122;-59
2022/07/29 06:12:03;;;;;;;4.60;2.13;;;22.20;99.90;;;;;;4955923;29;20055;-58
2022/07/29 06:14:28;;;;;;;4.28;1.92;;;22.70;99.90;;;;;;4955819;29;20478;-60
2022/07/29 06:16:54;;;;;;;9.30;2.00;;;23.50;99.90;;;;;;4970559;28;20126;-60
2022/07/29 06:19:20;;;;;;;6.78;2.20;;;24.40;99.90;;;;;;4954414;28;20027;-60
2022/07/29 06:21:46;;;;;;;5.32;2.13;;;25.10;99.90;;;;;;4955774;29;20023;-60
2022/07/29 06:24:13;;;;;;;3.67;1.77;;;25.70;99.90;;;;;;4955771;29;20042;-59
2022/07/29 06:26:39;;;;;;;7.88;2.22;;;26.20;99.90;;;;;;4954490;29;20390;-60
2022/07/29 06:29:06;;;;;;;6.38;2.13;;;26.60;99.90;;;;;;4955570;29;20106;-60
2022/07/29 06:31:31;;;;;;;7.00;2.20;;;27.10;99.90;;;;;;4954420;29;20087;-60
2022/07/29 06:33:57;;;;;;;9.13;2.10;;;27.50;99.90;;;;;;4954332;29;20024;-60
2022/07/29 06:36:23;;;;;;;7.22;1.85;;;27.90;99.90;;;;;;4956091;29;20059;-57
2022/07/29 06:38:48;;;;;;;7.68;1.75;;;28.30;99.90;;;;;;4955509;29;20379;-58
2022/07/29 06:41:15;;;;;;;4.68;1.83;;;28.40;99.90;;;;;;4955639;29;20098;-59
2022/07/29 06:43:42;;;;;;;6.18;2.15;;;28.40;99.90;;;;;;4970671;28;20529;-59
2022/07/29 06:46:11;;;;;;;7.47;2.10;;;28.90;99.90;;;;;;4954303;29;20027;-59
2022/07/29 06:48:52;;;;;;;9.65;1.88;;;29.30;99.90;;;;;;4955515;29;20474;-60
2022/07/29 06:51:18;;;;;;;6.38;1.80;;;29.40;99.90;;;;;;4956056;29;20054;-59
2022/07/29 06:53:44;;;;;;;9.13;2.50;;;29.90;99.90;;;;;;4955622;29;20074;-57
2022/07/29 06:56:09;;;;;;;5.00;2.38;;;30.50;97.80;;;;;;4955200;29;20032;-59
2022/07/29 06:58:35;;;;;;;4.90;1.95;;;30.50;94.90;;;;;;4955506;29;20020;-58
2022/07/29 07:01:03;;;;;;;5.70;2.40;;;30.60;94.30;;;;;;4955247;29;20102;-59
2022/07/29 07:03:29;;;;;;;4.43;2.13;;;30.40;94.40;;;;;;4955021;29;20019;-59
2022/07/29 07:05:55;;;;;;;5.25;2.00;;;30.60;94.90;;;;;;4954096;29;20030;-55
2022/07/29 07:08:23;;;;;;;7.95;1.73;;;31.40;92.90;;;;;;4953929;29;20086;-60
2022/07/29 07:10:49;;;;;;;9.98;2.17;;;32.00;92.90;;;;;;4955202;29;20433;-59
2022/07/29 07:13:16;;;;;;;7.75;3.65;;;32.40;89.60;;;;;;4955408;29;20020;-60
2022/07/29 07:15:43;;;;;;;5.95;3.30;;;31.70;87.00;;;;;;4970069;28;20031;-60
2022/07/29 07:18:09;;;;;;;5.70;2.50;;;31.50;89.10;;;;;;4954510;28;20026;-60
2022/07/29 07:20:35;;;;;;;6.85;2.30;;;31.90;89.10;;;;;;4953871;29;20031;-60
2022/07/29 07:23:01;;;;;;;8.90;2.40;;;32.60;87.00;;;;;;4953980;29;20023;-60
2022/07/29 07:25:26;;;;;;;6.53;2.42;;;33.00;85.70;;;;;;4955123;29;20034;-59
2022/07/29 07:27:52;;;;;;;6.93;2.20;;;33.90;84.50;;;;;;4954612;29;20106;-60
2022/07/29 07:30:18;;;;;;;3.70;2.17;;;34.30;79.30;;;;;;4955023;29;20034;-59
2022/07/29 07:32:43;;;;;;;6.35;2.40;;;33.10;80.90;;;;;;4955849;28;20031;-57
2022/07/29 07:35:10;;;;;;;5.00;1.77;;;32.40;80.30;;;;;;4957335;29;20031;-59
2022/07/29 07:37:36;;;;;;;7.05;2.20;;;32.00;82.70;;;;;;4957644;29;20110;-59
2022/07/29 07:40:02;;;;;;;3.40;2.17;;;32.30;80.50;;;;;;4957182;29;20494;-59
2022/07/29 07:42:28;;;;;;;4.40;1.60;;;32.60;82.60;;;;;;4957162;29;20024;-60
2022/07/29 07:44:53;;;;;;;6.55;2.05;;;33.90;80.40;;;;;;4973559;28;20030;-60
2022/07/29 07:47:19;;;;;;;4.70;2.05;;;35.10;75.40;;;;;;4958457;29;20110;-60
2022/07/29 07:49:46;;;;;;;5.20;2.30;;;35.50;72.10;;;;;;4956976;29;20031;-60
2022/07/29 07:52:12;;;;;;;4.25;1.88;;;36.20;70.80;;;;;;4958454;29;20073;-58
2022/07/29 07:54:38;;;;;;;2.03;1.65;;;36.80;69.40;;;;;;4957191;29;20023;-60
2022/07/29 07:57:03;;;;;;;6.95;2.05;;;37.60;67.10;;;;;;4958227;29;20038;-60
2022/07/29 07:59:29;;;;;;;2.22;1.80;;;38.40;65.50;;;;;;4958462;29;20028;-60
2022/07/29 08:01:54;;;;;;;8.20;2.00;;;37.70;66.80;;;;;;4958313;29;20034;-60
2022/07/29 08:04:20;;;;;;;7.50;2.42;;;38.50;61.60;;;;;;4956917;29;20114;-57
2022/07/29 08:06:46;;;;;;;6.05;2.33;;;37.50;62.00;;;;;;4957023;29;20490;-59
2022/07/29 08:09:11;;;;;;;3.22;1.98;;;36.30;64.30;;;;;;4957302;29;20038;-59
2022/07/29 08:11:37;;;;;;;3.45;1.70;;;37.20;63.60;;;;;;4973062;28;20031;-59
2022/07/29 08:14:03;;;;;;;2.97;1.90;;;38.30;61.30;;;;;;4956895;29;20020;-59
2022/07/29 08:16:29;;;;;;;4.35;2.35;;;37.70;59.30;;;;;;4957974;29;20478;-62
2022/07/29 08:18:56;;;;;;;3.22;1.92;;;36.40;61.70;;;;;;4958160;29;20028;-63
2022/07/29 08:21:23;;;;;;;4.40;2.08;;;36.00;63.80;;;;;;4957850;29;20042;-65
2022/07/29 08:23:52;;;;;;;3.38;2.00;;;35.80;64.40;;;;;;4957911;29;20023;-63
2022/07/29 08:26:18;;;;;;;4.97;2.20;;;36.20;61.50;;;;;;4957826;29;20038;-63
2022/07/29 08:28:45;;;;;;;4.35;1.73;;;35.60;61.90;;;;;;4957941;29;20027;-57
2022/07/29 08:31:12;;;;;;;6.10;1.75;;;35.00;65.80;;;;;;4957814;29;20028;-58
2022/07/29 08:33:38;;;;;;;4.40;2.08;;;34.90;65.40;;;;;;4956790;29;20035;-55
2022/07/29 08:36:04;;;;;;;5.72;2.25;;;35.90;64.80;;;;;;4956711;29;20054;-55
2022/07/29 08:38:30;;;;;;;4.97;2.03;;;36.40;63.70;;;;;;4972640;28;20114;-57
2022/07/29 08:40:55;;;;;;;4.30;2.35;;;36.50;62.30;;;;;;4957669;29;20103;-57
2022/07/29 08:43:21;;;;;;;3.95;2.10;;;36.50;62.50;;;;;;4957495;28;20031;-52
2022/07/29 08:45:50;;;;;;;5.38;1.75;;;36.70;62.20;;;;;;4956486;29;20027;-55
2022/07/29 08:48:43;;;;;;;3.70;1.90;;;36.30;62.90;;;;;;4956808;29;20023;-56
2022/07/29 08:51:13;;;;;;;4.63;2.22;;;37.00;62.50;;;;;;4956475;29;20039;-51
2022/07/29 08:53:42;;;;;;;4.90;2.30;;;36.90;62.40;;;;;;4957694;29;20367;-58
2022/07/29 08:56:12;;;;;;;8.95;2.45;;;36.30;62.40;;;;;;4956050;29;20089;-59
2022/07/29 08:58:38;;;;;;;2.78;2.00;;;36.20;61.80;;;;;;4956095;29;20118;-59
2022/07/29 09:01:04;;;;;;;3.42;2.05;;;35.30;62.60;;;;;;4956041;29;20058;-55
2022/07/29 09:03:32;;;;;;;6.88;2.10;;;34.50;64.00;;;;;;4956092;29;20386;-55
2022/07/29 09:06:02;;;;;;;6.13;2.35;;;34.00;66.00;;;;;;4956310;29;20099;-50
2022/07/29 09:08:28;;;;;;;5.97;2.38;;;34.40;65.00;;;;;;4956722;29;20031;-59
2022/07/29 09:10:58;;;;;;;3.20;1.80;;;34.20;66.00;;;;;;4957102;29;20032;-56
2022/07/29 09:13:24;;;;;;;4.55;1.90;;;34.60;65.00;;;;;;4955780;29;20053;-57
2022/07/29 09:15:50;;;;;;;5.45;2.33;;;34.70;64.10;;;;;;4956923;29;20027;-55
2022/07/29 09:18:37;;;;;;;4.78;1.90;;;34.70;64.60;;;;;;4956887;29;20024;-55
2022/07/29 09:24:09;;;;;;;3.13;2.00;;;34.40;64.80;;;;;;4957143;29;20034;-60
2022/07/29 09:26:46;;;;;;;2.92;1.90;;;34.40;65.20;;;;;;4955582;29;20027;-57
2022/07/29 09:29:18;;;;;;;3.15;2.13;;;34.10;65.00;;;;;;4955342;29;20081;-60
2022/07/29 09:31:46;;;;;;;5.82;2.42;;;34.20;65.00;;;;;;4956041;28;20027;-58
2022/07/29 09:34:14;;;;;;;4.22;2.10;;;34.10;65.90;;;;;;4955376;28;20121;-57
2022/07/29 09:36:45;;;;;;;4.05;2.13;;;34.20;65.70;;;;;;4956559;29;20031;-60
2022/07/29 09:39:12;;;;;;;4.53;2.22;;;34.10;65.70;;;;;;4971223;28;20106;-62
2022/07/29 09:42:05;;;;;;;5.05;2.13;;;34.60;65.30;;;;;;4956522;29;20031;-61
2022/07/29 09:45:21;;;;;;;6.80;1.92;;;35.00;64.70;;;;;;4955298;29;20035;-60
2022/07/29 09:47:48;;;;;;;5.13;1.95;;;35.40;65.00;;;;;;4956696;28;20027;-58
2022/07/29 09:50:15;;;;;;;5.20;2.42;;;35.90;63.40;;;;;;4955054;29;20137;-49
2022/07/29 09:52:49;;;;;;;3.33;2.20;;;36.70;61.60;;;;;;4956397;29;20034;-50
2022/07/29 09:55:16;;;;;;;3.13;2.30;;;37.20;61.40;;;;;;4955680;28;20035;-51
2022/07/29 09:57:42;;;;;;;5.57;1.95;;;36.50;61.40;;;;;;4956062;29;20030;-54
2022/07/29 10:00:09;;;;;;;5.55;2.10;;;36.60;61.60;;;;;;4971929;28;20024;-49
2022/07/29 10:02:37;;;;;;;8.77;1.92;;;36.60;61.80;;;;;;4955040;28;20489;-50
2022/07/29 10:05:05;;;;;;;7.50;2.38;;;36.00;62.80;;;;;;4956141;29;20020;-50
2022/07/29 10:07:55;;;;;;;6.45;2.33;;;34.70;63.40;;;;;;4956088;29;20019;-52
2022/07/29 10:10:41;;;;;;;8.95;2.15;;;34.10;65.20;;;;;;4955038;29;20054;-51
2022/07/29 10:13:09;;;;;;;3.50;1.98;;;33.80;66.00;;;;;;4955864;29;20082;-58
2022/07/29 10:15:38;;;;;;;4.15;2.20;;;34.00;65.50;;;;;;4954870;29;20028;-55
2022/07/29 10:18:05;;;;;;;7.10;1.63;;;35.10;64.80;;;;;;4955870;28;20020;-56
2022/07/29 10:20:31;;;;;;;3.28;1.88;;;36.50;62.30;;;;;;4955709;29;20119;-54
2022/07/29 10:22:57;;;;;;;9.32;2.03;;;37.70;60.40;;;;;;4971036;28;20035;-55
2022/07/29 10:25:24;;;;;;;4.53;2.03;;;37.90;59.50;;;;;;4954873;28;20027;-53
2022/07/29 10:27:51;;;;;;;6.10;1.92;;;38.70;58.30;;;;;;4954731;29;20030;-56
2022/07/29 10:30:18;;;;;;;5.47;2.30;;;39.00;58.00;;;;;;4954423;29;20482;-56
2022/07/29 10:33:06;;;;;;;4.95;2.53;;;38.60;57.70;;;;;;4954670;29;20122;-53
2022/07/29 10:35:34;;;;;;;5.22;2.20;;;37.70;58.60;;;;;;4954407;29;20035;-55
2022/07/29 10:38:29;;;;;;;4.45;1.88;;;37.00;59.40;;;;;;4954136;29;20479;-58
2022/07/29 10:41:27;;;;;;;5.22;2.42;;;36.60;59.50;;;;;;4955809;29;20058;-58
2022/07/29 10:43:58;;;;;;;6.25;2.10;;;36.30;60.20;;;;;;4955539;28;20023;-53
2022/07/29 10:46:24;;;;;;;6.60;2.13;;;36.30;60.60;;;;;;4955579;29;20034;-52
2022/07/29 10:49:16;;;;;;;4.22;2.00;;;36.10;61.60;;;;;;4954428;29;20023;-56
2022/07/29 10:52:01;;;;;;;5.15;2.20;;;35.20;62.40;;;;;;4954751;29;20042;-58
2022/07/29 10:54:47;;;;;;;3.90;2.13;;;34.90;62.80;;;;;;4956023;29;20078;-52
2022/07/29 10:57:26;;;;;;;7.13;2.20;;;34.80;62.20;;;;;;4954628;29;20027;-62
2022/07/29 11:00:03;;;;;;;9.98;2.60;;;34.80;62.90;;;;;;4954087;29;20023;-60
2022/07/29 11:02:35;;;;;;;2.78;2.28;;;34.40;63.20;;;;;;4954093;29;20046;-57
2022/07/29 11:05:11;;;;;;;4.72;2.20;;;34.10;63.40;;;;;;4954361;29;20075;-62
2022/07/29 11:07:57;;;;;;;4.68;2.10;;;33.80;63.50;;;;;;4956540;28;20027;-62
2022/07/29 11:10:23;;;;;;;5.00;2.53;;;33.80;64.40;;;;;;4958206;29;20121;-61
2022/07/29 11:12:50;;;;;;;5.45;2.45;;;33.40;65.00;;;;;;4957974;29;20023;-61
2022/07/29 11:15:18;;;;;;;3.88;2.55;;;32.40;64.70;;;;;;4957783;29;20042;-61
2022/07/29 11:17:53;;;;;;;7.45;2.10;;;31.60;66.80;;;;;;4958953;29;20024;-61
2022/07/29 11:20:41;;;;;;;4.78;2.38;;;30.60;67.80;;;;;;4959071;29;20363;-61
2022/07/29 11:23:35;;;;;;;7.28;2.88;;;30.20;69.50;;;;;;4957892;29;20041;-60
2022/07/29 11:26:13;;;;;;;2.33;2.05;;;29.60;69.70;;;;;;4957836;28;20094;-61
2022/07/29 11:28:50;;;;;;;7.53;2.42;;;29.40;71.40;;;;;;4958091;29;20034;-61
2022/07/29 11:31:19;;;;;;;6.22;2.47;;;29.70;71.50;;;;;;4958042;28;20027;-61
2022/07/29 11:33:45;;;;;;;5.50;2.17;;;29.80;71.80;;;;;;4958905;29;20071;-60
2022/07/29 11:36:14;;;;;;;3.47;2.35;;;29.80;70.90;;;;;;4958675;29;20051;-59
2022/07/29 11:38:40;;;;;;;3.25;2.22;;;29.80;72.30;;;;;;4958738;29;20039;-61
2022/07/29 11:41:25;;;;;;;3.75;2.40;;;30.30;71.40;;;;;;4957780;29;20023;-61
2022/07/29 11:43:59;;;;;;;4.80;1.70;;;30.20;71.40;;;;;;4957851;29;20023;-60
2022/07/29 11:46:43;;;;;;;3.53;2.30;;;30.40;71.50;;;;;;4958602;29;20028;-58
2022/07/29 11:49:09;;;;;;;4.00;2.13;;;30.50;69.40;;;;;;4958332;29;20027;-62
2022/07/29 11:51:39;;;;;;;3.22;1.90;;;30.70;71.10;;;;;;4958668;29;20462;-61
2022/07/29 11:54:05;;;;;;;4.40;2.30;;;30.90;71.10;;;;;;4958095;29;20031;-62
2022/07/29 11:56:32;;;;;;;3.65;2.00;;;31.00;71.20;;;;;;4973682;28;20023;-62
2022/07/29 11:59:09;;;;;;;6.40;2.03;;;31.20;69.90;;;;;;4957429;29;20031;-62
2022/07/29 12:01:35;;;;;;;3.50;1.73;;;31.30;69.50;;;;;;4957214;29;20023;-61
2022/07/29 12:04:05;;;;;;;6.40;2.28;;;31.30;71.00;;;;;;4958248;29;20024;-62
2022/07/29 12:06:30;;;;;;;3.00;2.47;;;30.90;69.90;;;;;;4958341;29;20023;-61
2022/07/29 12:08:56;;;;;;;3.40;2.50;;;30.30;71.30;;;;;;4957044;29;20325;-60
2022/07/29 12:11:22;;;;;;;4.75;2.10;;;30.00;71.70;;;;;;4957079;28;20082;-62
2022/07/29 12:13:49;;;;;;;5.53;2.25;;;29.50;72.00;;;;;;4957163;29;20134;-62
2022/07/29 12:16:15;;;;;;;4.03;2.13;;;29.20;73.80;;;;;;4973146;28;20034;-61
2022/07/29 12:18:41;;;;;;;4.32;2.30;;;29.00;73.40;;;;;;4956458;28;20090;-62
2022/07/29 12:21:08;;;;;;;4.40;2.60;;;29.00;74.00;;;;;;4973416;28;20051;-59
2022/07/29 12:23:33;;;;;;;3.28;2.53;;;29.00;74.40;;;;;;4958002;29;20034;-60
2022/07/29 12:26:00;;;;;;;4.43;2.20;;;28.70;74.80;;;;;;4958023;28;20035;-61
2022/07/29 12:28:25;;;;;;;3.65;2.28;;;28.80;75.00;;;;;;4956940;29;20031;-62
2022/07/29 12:30:52;;;;;;;4.97;2.17;;;28.70;75.00;;;;;;4956555;28;20063;-61
2022/07/29 12:33:22;;;;;;;4.28;2.35;;;28.90;74.00;;;;;;4957741;29;20034;-62
2022/07/29 12:36:02;;;;;;;2.20;1.73;;;28.90;75.80;;;;;;4956540;29;20065;-60
2022/07/29 12:38:28;;;;;;;3.72;1.90;;;29.00;74.00;;;;;;4957559;29;20039;-62
2022/07/29 12:40:54;;;;;;;4.25;2.13;;;29.30;73.30;;;;;;4956919;29;20034;-62
2022/07/29 12:43:24;;;;;;;2.33;1.73;;;29.40;73.40;;;;;;4956780;28;20073;-63
2022/07/29 12:45:56;;;;;;;3.80;2.17;;;29.50;73.30;;;;;;4957148;29;20023;-62
2022/07/29 12:48:39;;;;;;;4.95;2.35;;;29.60;73.00;;;;;;4956322;28;20027;-62
2022/07/29 12:51:07;;;;;;;4.53;2.13;;;29.40;74.10;;;;;;4956331;29;20043;-62
2022/07/29 12:53:33;;;;;;;3.95;1.85;;;29.30;73.90;;;;;;4957352;29;20027;-62
2022/07/29 12:56:01;;;;;;;5.43;2.92;;;29.40;73.70;;;;;;4956398;29;20051;-62
2022/07/29 12:58:29;;;;;;;5.85;3.80;;;29.50;72.40;;;;;;4957242;28;20470;-62
2022/07/29 13:01:17;;;;;;;2.85;2.30;;;29.60;73.60;;;;;;4957508;29;20031;-62
2022/07/29 13:03:53;;;;;;;5.72;2.30;;;29.60;74.30;;;;;;4956618;29;20379;-62